createdAt,value
2018-11-10T00:00:36.251Z,7.20
2018-11-10T00:03:05.806Z,7.30
2018-11-10T00:05:34.636Z,7.30
2018-11-10T00:08:04.537Z,7.20
2018-11-10T00:10:33.151Z,7.20
2018-11-10T00:13:01.818Z,7.20
2018-11-10T00:15:30.481Z,7.20
2018-11-10T00:17:59.958Z,7.20
2018-11-10T00:20:28.910Z,7.10
2018-11-10T00:22:57.550Z,7.10
2018-11-10T00:25:26.166Z,7.00
2018-11-10T00:27:54.743Z,7.00
2018-11-10T00:30:23.841Z,7.10
2018-11-10T00:32:52.520Z,7.00
2018-11-10T00:35:21.169Z,7.00
2018-11-10T00:37:49.846Z,6.90
2018-11-10T00:40:18.520Z,7.00
2018-11-10T00:42:47.217Z,6.90
2018-11-10T00:45:15.869Z,6.90
2018-11-10T00:47:44.472Z,6.90
2018-11-10T00:50:13.124Z,6.80
2018-11-10T00:52:41.781Z,6.70
2018-11-10T00:55:10.945Z,6.70
2018-11-10T00:57:39.649Z,6.80
2018-11-10T01:00:10.510Z,6.70
2018-11-10T01:02:39.133Z,6.70
2018-11-10T01:05:07.754Z,6.70
2018-11-10T01:07:36.417Z,6.60
2018-11-10T01:10:05.857Z,6.60
2018-11-10T01:12:34.537Z,6.60
2018-11-10T01:15:03.247Z,6.50
2018-11-10T01:17:31.912Z,6.60
2018-11-10T01:20:00.562Z,6.60
2018-11-10T01:22:29.280Z,6.50
2018-11-10T01:24:58.778Z,6.50
2018-11-10T01:27:27.433Z,6.50
2018-11-10T01:29:56.132Z,6.50
2018-11-10T01:32:24.770Z,6.40
2018-11-10T01:34:53.368Z,6.40
2018-11-10T01:37:22.001Z,6.40
2018-11-10T01:39:50.575Z,6.40
2018-11-10T01:42:19.168Z,6.40
2018-11-10T01:44:47.964Z,6.40
2018-11-10T01:47:16.553Z,6.30
2018-11-10T01:49:45.243Z,6.30
2018-11-10T01:52:13.929Z,6.30
2018-11-10T01:54:42.618Z,6.30
2018-11-10T01:57:11.911Z,6.30
2018-11-10T01:59:40.954Z,6.20
2018-11-10T02:02:09.777Z,6.30
2018-11-10T02:04:38.450Z,6.30
2018-11-10T02:07:07.067Z,6.20
2018-11-10T02:09:36.223Z,6.20
2018-11-10T02:12:04.963Z,6.20
2018-11-10T02:14:33.707Z,6.20
2018-11-10T02:17:02.395Z,6.20
2018-11-10T02:19:31.011Z,6.20
2018-11-10T02:22:00.355Z,6.20
2018-11-10T02:24:29.081Z,6.00
2018-11-10T02:26:57.756Z,6.00
2018-11-10T02:29:27.100Z,6.00
2018-11-10T02:31:55.831Z,6.00
2018-11-10T02:34:24.445Z,5.90
2018-11-10T02:36:53.066Z,5.90
2018-11-10T02:39:21.690Z,5.90
2018-11-10T02:41:50.249Z,5.90
2018-11-10T02:44:18.961Z,5.70
2018-11-10T02:46:47.661Z,5.70
2018-11-10T02:49:16.714Z,5.80
2018-11-10T02:51:45.990Z,5.80
2018-11-10T02:54:14.605Z,5.80
2018-11-10T02:56:43.190Z,5.80
2018-11-10T02:59:11.871Z,5.80
2018-11-10T03:01:40.495Z,5.70
2018-11-10T03:04:09.190Z,5.50
2018-11-10T03:06:38.470Z,5.50
2018-11-10T03:09:07.885Z,5.60
2018-11-10T03:11:36.627Z,5.50
2018-11-10T03:14:05.548Z,5.60
2018-11-10T03:16:34.171Z,5.50
2018-11-10T03:19:02.772Z,5.40
2018-11-10T03:21:31.573Z,5.50
2018-11-10T03:24:00.177Z,5.40
2018-11-10T03:26:28.793Z,5.30
2018-11-10T03:28:57.471Z,5.40
2018-11-10T03:31:26.162Z,5.40
2018-11-10T03:33:54.806Z,5.40
2018-11-10T03:36:23.484Z,5.40
2018-11-10T03:38:52.125Z,5.40
2018-11-10T03:41:20.839Z,5.30
2018-11-10T03:43:49.581Z,5.30
2018-11-10T03:46:18.243Z,5.30
2018-11-10T03:48:47.342Z,5.20
2018-11-10T03:51:15.941Z,5.20
2018-11-10T03:53:44.516Z,5.20
2018-11-10T03:56:13.121Z,5.20
2018-11-10T03:58:41.829Z,5.10
2018-11-10T04:01:10.496Z,5.10
2018-11-10T04:03:39.381Z,5.10
2018-11-10T04:06:08.038Z,5.10
2018-11-10T04:08:36.694Z,5.10
2018-11-10T04:11:05.474Z,5.10
2018-11-10T04:13:34.488Z,5.00
2018-11-10T04:16:03.093Z,5.00
2018-11-10T04:18:31.762Z,4.90
2018-11-10T04:21:00.533Z,4.90
2018-11-10T04:23:29.148Z,4.90
2018-11-10T04:25:57.851Z,4.90
2018-11-10T04:28:26.672Z,4.80
2018-11-10T04:30:55.319Z,4.80
2018-11-10T04:33:23.975Z,4.80
2018-11-10T04:35:52.575Z,4.70
2018-11-10T04:38:21.201Z,4.70
2018-11-10T04:40:50.106Z,4.70
2018-11-10T04:43:18.819Z,4.70
2018-11-10T04:45:47.434Z,4.60
2018-11-10T04:48:16.527Z,4.60
2018-11-10T04:50:45.151Z,4.60
2018-11-10T04:53:13.744Z,4.60
2018-11-10T04:55:42.407Z,4.50
2018-11-10T04:58:11.029Z,4.40
2018-11-10T05:00:39.692Z,4.40
2018-11-10T05:03:09.052Z,4.30
2018-11-10T05:05:37.682Z,4.30
2018-11-10T05:08:06.701Z,4.30
2018-11-10T05:10:35.449Z,4.30
2018-11-10T05:13:04.191Z,4.30
2018-11-10T05:15:32.873Z,4.20
2018-11-10T05:18:01.495Z,4.20
2018-11-10T05:20:30.129Z,4.20
2018-11-10T05:22:58.787Z,4.30
2018-11-10T05:25:27.470Z,4.20
2018-11-10T05:27:56.082Z,4.20
2018-11-10T05:30:24.753Z,4.10
2018-11-10T05:32:53.427Z,4.10
2018-11-10T05:35:22.014Z,4.00
2018-11-10T05:37:50.601Z,4.00
2018-11-10T05:40:19.275Z,4.00
2018-11-10T05:42:48.545Z,3.90
2018-11-10T05:45:17.162Z,4.00
2018-11-10T05:47:46.139Z,3.90
2018-11-10T05:50:14.732Z,3.80
2018-11-10T05:52:46.374Z,3.70
2018-11-10T05:55:14.973Z,3.70
2018-11-10T05:57:43.612Z,3.60
2018-11-10T06:00:13.434Z,3.60
2018-11-10T06:02:42.743Z,3.70
2018-11-10T06:05:11.985Z,3.60
2018-11-10T06:07:40.637Z,3.50
2018-11-10T06:10:10.948Z,3.50
2018-11-10T06:12:39.485Z,3.40
2018-11-10T06:15:08.663Z,3.40
2018-11-10T06:17:37.514Z,3.20
2018-11-10T06:20:07.693Z,3.30
2018-11-10T06:22:36.429Z,3.30
2018-11-10T06:25:06.172Z,3.20
2018-11-10T06:27:35.150Z,3.20
2018-11-10T06:30:03.868Z,3.20
2018-11-10T06:32:32.759Z,3.10
2018-11-10T06:35:01.604Z,3.10
2018-11-10T06:37:30.488Z,3.20
2018-11-10T06:39:59.405Z,3.20
2018-11-10T06:42:28.415Z,3.10
2018-11-10T06:44:57.069Z,3.10
2018-11-10T06:47:26.120Z,3.00
2018-11-10T06:49:54.914Z,3.00
2018-11-10T06:52:23.549Z,3.00
2018-11-10T06:54:52.222Z,3.00
2018-11-10T06:57:20.956Z,3.00
2018-11-10T06:59:49.801Z,3.10
2018-11-10T07:02:18.522Z,3.20
2018-11-10T07:04:47.222Z,3.20
2018-11-10T07:07:15.893Z,3.30
2018-11-10T07:09:44.571Z,3.40
2018-11-10T07:12:13.331Z,3.50
2018-11-10T07:14:42.011Z,3.50
2018-11-10T07:17:10.887Z,3.60
2018-11-10T07:19:39.710Z,3.60
2018-11-10T07:22:08.539Z,3.80
2018-11-10T07:24:37.904Z,3.90
2018-11-10T07:27:06.801Z,4.00
2018-11-10T07:29:35.521Z,4.10
2018-11-10T07:32:04.288Z,4.20
2018-11-10T07:34:33.091Z,4.40
2018-11-10T07:37:01.862Z,4.70
2018-11-10T07:39:30.615Z,4.70
2018-11-10T07:42:00.731Z,4.90
2018-11-10T07:44:29.772Z,5.10
2018-11-10T07:46:58.411Z,5.30
2018-11-10T07:49:27.196Z,5.40
2018-11-10T07:51:56.039Z,5.70
2018-11-10T07:54:24.743Z,5.80
2018-11-10T07:56:53.491Z,6.00
2018-11-10T07:59:22.357Z,6.10
2018-11-10T08:01:51.120Z,6.40
2018-11-10T08:04:19.899Z,6.70
2018-11-10T08:06:49.276Z,6.90
2018-11-10T08:09:17.955Z,7.20
2018-11-10T08:11:46.716Z,7.50
2018-11-10T08:14:15.409Z,8.20
2018-11-10T08:16:44.269Z,8.70
2018-11-10T08:19:12.960Z,9.00
2018-11-10T08:21:41.694Z,9.60
2018-11-10T08:24:10.391Z,10.10
2018-11-10T08:26:39.669Z,10.80
2018-11-10T08:29:08.312Z,11.80
2018-11-10T08:31:36.929Z,12.30
2018-11-10T08:34:05.544Z,12.90
2018-11-10T08:36:34.170Z,13.70
2018-11-10T08:39:02.871Z,14.60
2018-11-10T08:41:31.424Z,14.90
2018-11-10T08:44:00.013Z,15.10
2018-11-10T08:46:28.634Z,16.00
2018-11-10T08:48:57.806Z,16.20
2018-11-10T08:51:26.669Z,16.90
2018-11-10T08:53:55.460Z,17.70
2018-11-10T08:56:23.999Z,17.90
2018-11-10T08:58:52.611Z,18.00
2018-11-10T09:01:21.174Z,17.80
2018-11-10T09:03:49.711Z,18.10
2018-11-10T09:06:18.312Z,18.70
2018-11-10T09:08:46.874Z,18.70
2018-11-10T09:11:15.481Z,18.90
2018-11-10T09:13:44.030Z,19.60
2018-11-10T09:16:12.615Z,19.70
2018-11-10T09:18:41.365Z,20.50
2018-11-10T09:21:09.980Z,20.30
2018-11-10T09:23:38.677Z,20.00
2018-11-10T09:26:07.251Z,20.30
2018-11-10T09:28:36.290Z,20.40
2018-11-10T09:31:05.137Z,20.50
2018-11-10T09:33:34.304Z,21.20
2018-11-10T09:36:02.908Z,21.10
2018-11-10T09:38:31.482Z,21.60
2018-11-10T09:41:00.778Z,21.50
2018-11-10T09:43:29.309Z,21.40
2018-11-10T09:45:58.061Z,21.50
2018-11-10T09:48:26.601Z,21.50
2018-11-10T09:50:55.359Z,21.80
2018-11-10T09:53:23.814Z,22.30
2018-11-10T09:55:52.350Z,22.00
2018-11-10T09:58:20.974Z,21.90
2018-11-10T10:00:49.571Z,22.20
2018-11-10T10:03:18.174Z,22.30
2018-11-10T10:05:46.755Z,22.80
2018-11-10T10:08:15.560Z,23.10
2018-11-10T10:10:44.173Z,23.30
2018-11-10T10:13:13.661Z,23.40
2018-11-10T10:15:42.194Z,23.10
2018-11-10T10:18:10.753Z,22.90
2018-11-10T10:20:39.937Z,23.40
2018-11-10T10:23:08.514Z,23.50
2018-11-10T10:25:37.262Z,23.30
2018-11-10T10:28:06.063Z,23.60
2018-11-10T10:30:34.844Z,24.20
2018-11-10T10:33:03.489Z,24.10
2018-11-10T10:35:32.807Z,24.20
2018-11-10T10:38:01.322Z,24.00
2018-11-10T10:40:29.932Z,24.50
2018-11-10T10:42:58.600Z,24.90
2018-11-10T10:45:27.181Z,25.10
2018-11-10T10:47:55.878Z,25.30
2018-11-10T10:50:24.562Z,25.60
2018-11-10T10:52:53.109Z,25.50
2018-11-10T10:55:21.688Z,25.60
2018-11-10T10:57:50.811Z,25.60
2018-11-10T11:00:24.684Z,26.30
2018-11-10T11:02:58.759Z,26.90
2018-11-10T11:05:49.041Z,27.00
2018-11-10T11:08:17.643Z,26.90
2018-11-10T11:10:46.217Z,26.60
2018-11-10T11:13:15.501Z,26.80
2018-11-10T11:15:44.127Z,27.20
2018-11-10T11:18:12.657Z,27.50
2018-11-10T11:20:41.215Z,27.70
2018-11-10T11:23:09.764Z,28.00
2018-11-10T11:25:38.380Z,27.70
2018-11-10T11:28:07.058Z,27.70
2018-11-10T11:30:35.622Z,27.60
2018-11-10T11:33:04.148Z,28.40
2018-11-10T11:35:32.678Z,28.00
2018-11-10T11:38:01.371Z,27.90
2018-11-10T11:40:29.928Z,28.50
2018-11-10T11:42:58.457Z,29.00
2018-11-10T11:45:27.368Z,28.80
2018-11-10T11:47:56.650Z,28.20
2018-11-10T11:50:25.202Z,27.80
2018-11-10T11:52:53.761Z,28.80
2018-11-10T11:55:22.254Z,29.40
2018-11-10T11:57:51.077Z,29.50
2018-11-10T12:00:19.510Z,29.40
2018-11-10T12:02:48.689Z,28.70
2018-11-10T12:05:18.478Z,28.00
2018-11-10T12:07:47.589Z,28.10
2018-11-10T12:10:16.899Z,28.70
2018-11-10T12:12:45.441Z,28.40
2018-11-10T12:15:15.259Z,28.30
2018-11-10T12:17:44.437Z,28.50
2018-11-10T12:20:14.329Z,28.70
2018-11-10T12:22:43.203Z,28.90
2018-11-10T12:25:12.757Z,28.90
2018-11-10T12:27:41.985Z,29.20
2018-11-10T12:30:11.164Z,29.30
2018-11-10T12:32:40.898Z,29.10
2018-11-10T12:35:11.486Z,29.60
2018-11-10T12:37:40.039Z,29.80
2018-11-10T12:40:10.759Z,30.30
2018-11-10T12:42:40.073Z,29.80
2018-11-10T12:45:10.460Z,29.80
2018-11-10T12:47:39.877Z,29.30
2018-11-10T12:50:10.175Z,29.00
2018-11-10T12:52:38.765Z,29.50
2018-11-10T12:55:08.795Z,29.70
2018-11-10T12:57:37.361Z,29.80
2018-11-10T13:00:07.202Z,29.70
2018-11-10T13:02:36.272Z,29.40
2018-11-10T13:05:05.864Z,29.50
2018-11-10T13:07:34.501Z,29.60
2018-11-10T13:10:03.601Z,28.80
2018-11-10T13:12:32.241Z,28.80
2018-11-10T13:15:00.772Z,28.00
2018-11-10T13:17:29.424Z,28.00
2018-11-10T13:19:57.919Z,27.80
2018-11-10T13:22:27.217Z,28.10
2018-11-10T13:24:55.833Z,28.00
2018-11-10T13:27:25.251Z,27.40
2018-11-10T13:29:53.906Z,27.10
2018-11-10T13:32:22.597Z,26.60
2018-11-10T13:34:51.699Z,26.10
2018-11-10T13:37:20.317Z,25.60
2018-11-10T13:39:48.902Z,25.50
2018-11-10T13:42:17.476Z,25.30
2018-11-10T13:44:46.137Z,25.10
2018-11-10T13:47:14.846Z,24.50
2018-11-10T13:49:43.632Z,24.10
2018-11-10T13:52:12.537Z,23.60
2018-11-10T13:54:41.067Z,23.60
2018-11-10T13:57:10.361Z,23.50
2018-11-10T13:59:39.138Z,22.90
2018-11-10T14:02:07.756Z,22.50
2018-11-10T14:04:36.744Z,22.20
2018-11-10T14:07:05.735Z,21.80
2018-11-10T14:09:34.431Z,20.90
2018-11-10T14:12:03.189Z,21.00
2018-11-10T14:14:32.089Z,20.80
2018-11-10T14:17:01.781Z,20.50
2018-11-10T14:19:30.628Z,20.30
2018-11-10T14:21:59.281Z,20.10
2018-11-10T14:24:28.576Z,19.50
2018-11-10T14:26:57.167Z,19.20
2018-11-10T14:29:27.061Z,19.20
2018-11-10T14:31:55.634Z,18.70
2018-11-10T14:34:24.938Z,18.50
2018-11-10T14:36:53.544Z,18.50
2018-11-10T14:39:22.215Z,18.00
2018-11-10T14:41:50.886Z,17.90
2018-11-10T14:44:19.606Z,17.80
2018-11-10T14:46:48.764Z,17.90
2018-11-10T14:49:17.633Z,17.80
2018-11-10T14:51:46.304Z,17.90
2018-11-10T14:54:14.895Z,17.80
2018-11-10T14:56:43.530Z,17.80
2018-11-10T14:59:12.141Z,17.60
2018-11-10T15:01:41.584Z,17.40
2018-11-10T15:04:10.153Z,17.20
2018-11-10T15:06:38.885Z,17.10
2018-11-10T15:09:09.345Z,17.10
2018-11-10T15:11:38.090Z,17.10
2018-11-10T15:14:07.351Z,17.00
2018-11-10T15:16:36.118Z,16.90
2018-11-10T15:19:04.950Z,16.70
2018-11-10T15:21:35.383Z,16.50
2018-11-10T15:24:05.031Z,16.30
2018-11-10T15:26:33.716Z,16.10
2018-11-10T15:29:09.075Z,16.00
2018-11-10T15:31:40.633Z,15.80
2018-11-10T15:34:11.346Z,15.60
2018-11-10T15:36:39.898Z,15.50
2018-11-10T15:39:10.328Z,15.40
2018-11-10T15:41:40.752Z,15.00
2018-11-10T15:44:10.368Z,14.90
2018-11-10T15:46:39.101Z,14.80
2018-11-10T15:49:09.288Z,14.70
2018-11-10T15:51:39.824Z,14.60
2018-11-10T15:54:09.282Z,14.40
2018-11-10T15:56:41.208Z,14.20
2018-11-10T15:59:10.362Z,14.00
2018-11-10T16:01:39.761Z,13.90
2018-11-10T16:04:08.305Z,13.70
2018-11-10T16:06:36.913Z,13.60
2018-11-10T16:09:08.876Z,13.50
2018-11-10T16:11:37.393Z,13.40
2018-11-10T16:14:06.133Z,13.30
2018-11-10T16:16:34.713Z,13.20
2018-11-10T16:19:03.387Z,13.10
2018-11-10T16:21:32.854Z,13.00
2018-11-10T16:24:01.401Z,12.90
2018-11-10T16:26:30.021Z,12.80
2018-11-10T16:28:59.111Z,12.60
2018-11-10T16:31:29.481Z,12.50
2018-11-10T16:33:58.514Z,12.40
2018-11-10T16:36:28.102Z,12.40
2018-11-10T16:38:56.715Z,12.20
2018-11-10T16:41:25.257Z,12.10
2018-11-10T16:43:53.904Z,12.00
2018-11-10T16:46:23.302Z,11.90
2018-11-10T16:48:51.909Z,11.80
2018-11-10T16:51:20.674Z,11.70
2018-11-10T16:53:50.940Z,11.60
2018-11-10T16:56:20.478Z,11.60
2018-11-10T16:58:49.305Z,11.50
2018-11-10T17:01:18.920Z,11.40
2018-11-10T17:03:47.457Z,11.40
2018-11-10T17:06:15.989Z,11.30
2018-11-10T17:08:44.550Z,11.20
2018-11-10T17:11:13.230Z,11.10
2018-11-10T17:13:42.093Z,11.00
2018-11-10T17:16:10.594Z,11.00
2018-11-10T17:18:39.170Z,11.00
2018-11-10T17:21:07.728Z,10.90
2018-11-10T17:23:36.306Z,10.80
2018-11-10T17:26:04.926Z,10.80
2018-11-10T17:28:33.487Z,10.60
2018-11-10T17:31:02.081Z,10.50
2018-11-10T17:33:31.112Z,10.40
2018-11-10T17:36:00.341Z,10.40
2018-11-10T17:38:29.012Z,10.30
2018-11-10T17:40:58.546Z,10.20
2018-11-10T17:43:27.773Z,10.10
2018-11-10T17:45:57.099Z,10.10
2018-11-10T17:48:31.045Z,10.10
2018-11-10T17:50:59.749Z,10.00
2018-11-10T17:53:28.352Z,9.90
2018-11-10T17:55:57.153Z,9.80
2018-11-10T17:58:25.737Z,9.80
2018-11-10T18:00:54.615Z,9.80
2018-11-10T18:03:24.191Z,9.70
2018-11-10T18:05:52.716Z,9.70
2018-11-10T18:08:21.462Z,9.60
2018-11-10T18:10:50.913Z,9.50
2018-11-10T18:13:21.886Z,9.50
2018-11-10T18:15:50.561Z,9.60
2018-11-10T18:18:19.129Z,9.50
2018-11-10T18:20:48.874Z,9.40
2018-11-10T18:23:18.968Z,9.30
2018-11-10T18:25:47.528Z,9.30
2018-11-10T18:28:16.133Z,9.30
2018-11-10T18:30:44.695Z,9.20
2018-11-10T18:33:13.268Z,9.10
2018-11-10T18:35:42.771Z,9.10
2018-11-10T18:38:14.585Z,9.00
2018-11-10T18:40:46.382Z,9.00
2018-11-10T18:43:18.967Z,8.90
2018-11-10T18:45:51.413Z,8.90
2018-11-10T18:48:27.538Z,8.80
2018-11-10T18:50:59.352Z,8.70
2018-11-10T18:53:28.051Z,8.60
2018-11-10T18:55:57.374Z,8.60
2018-11-10T18:58:25.997Z,8.50
2018-11-10T19:00:54.916Z,8.40
2018-11-10T19:03:23.679Z,8.30
2018-11-10T19:05:52.333Z,8.30
2018-11-10T19:08:20.970Z,8.20
2018-11-10T19:10:49.734Z,8.20
2018-11-10T19:13:18.294Z,8.10
2018-11-10T19:15:47.038Z,7.90
2018-11-10T19:18:15.717Z,8.00
2018-11-10T19:20:44.303Z,7.90
2018-11-10T19:23:13.660Z,7.90
2018-11-10T19:25:42.284Z,7.90
2018-11-10T19:28:12.366Z,7.80
2018-11-10T19:30:40.988Z,7.80
2018-11-10T19:33:09.715Z,7.80
2018-11-10T19:35:38.262Z,7.70
2018-11-10T19:38:07.620Z,7.60
2018-11-10T19:40:36.233Z,7.60
2018-11-10T19:43:05.183Z,7.60
2018-11-10T19:45:33.786Z,7.50
2018-11-10T19:48:02.437Z,7.50
2018-11-10T19:50:31.186Z,7.50
2018-11-10T19:52:59.636Z,7.40
2018-11-10T19:55:28.165Z,7.50
2018-11-10T19:57:57.661Z,7.50
2018-11-10T20:00:28.604Z,7.60
2018-11-10T20:02:59.648Z,7.60
2018-11-10T20:05:28.327Z,7.70
2018-11-10T20:07:57.958Z,7.80
2018-11-10T20:10:26.557Z,8.10
2018-11-10T20:12:56.399Z,8.00
2018-11-10T20:15:25.061Z,8.10
2018-11-10T20:17:56.372Z,8.10
2018-11-10T20:20:24.981Z,8.10
2018-11-10T20:22:59.590Z,8.20
2018-11-10T20:25:28.329Z,8.10
2018-11-10T20:27:58.569Z,8.10
2018-11-10T20:30:28.237Z,8.10
2018-11-10T20:32:56.873Z,7.90
2018-11-10T20:35:25.489Z,8.00
2018-11-10T20:37:54.657Z,8.00
2018-11-10T20:40:23.907Z,7.70
2018-11-10T20:42:52.641Z,7.80
2018-11-10T20:45:22.170Z,7.90
2018-11-10T20:47:53.061Z,8.00
2018-11-10T20:50:21.713Z,8.00
2018-11-10T20:52:50.361Z,7.50
2018-11-10T20:55:18.917Z,7.70
2018-11-10T20:57:48.496Z,7.70
2018-11-10T21:00:18.754Z,7.60
2018-11-10T21:02:47.358Z,7.60
2018-11-10T21:05:16.949Z,7.40
2018-11-10T21:07:45.849Z,7.30
2018-11-10T21:10:17.505Z,7.50
2018-11-10T21:12:48.049Z,7.60
2018-11-10T21:15:17.165Z,7.60
2018-11-10T21:17:46.840Z,7.10
2018-11-10T21:20:23.073Z,7.30
2018-11-10T21:22:51.626Z,7.40
2018-11-10T21:25:21.704Z,7.50
2018-11-10T21:27:50.317Z,7.40
2018-11-10T21:30:20.818Z,7.50
2018-11-10T21:32:49.854Z,7.50
2018-11-10T21:35:18.559Z,7.50
2018-11-10T21:37:47.377Z,7.50
2018-11-10T21:40:19.467Z,7.50
2018-11-10T21:42:48.017Z,7.50
2018-11-10T21:45:17.448Z,7.30
2018-11-10T21:47:46.314Z,7.40
2018-11-10T21:50:16.748Z,7.50
2018-11-10T21:52:49.046Z,7.50
2018-11-10T21:55:18.983Z,7.50
2018-11-10T21:57:49.381Z,7.50
2018-11-10T22:00:19.907Z,7.40
2018-11-10T22:02:49.585Z,7.40
2018-11-10T22:05:18.490Z,7.50
2018-11-10T22:07:47.112Z,7.40
2018-11-10T22:10:16.887Z,7.30
2018-11-10T22:12:45.792Z,7.30
2018-11-10T22:15:17.167Z,7.30
2018-11-10T22:17:46.245Z,7.30
2018-11-10T22:20:16.340Z,7.30
2018-11-10T22:22:45.160Z,7.30
2018-11-10T22:25:14.169Z,7.40
2018-11-10T22:27:43.929Z,7.40
2018-11-10T22:30:13.938Z,7.40
2018-11-10T22:32:43.134Z,7.40
2018-11-10T22:35:12.133Z,7.40
2018-11-10T22:37:40.876Z,7.40
2018-11-10T22:40:12.069Z,7.30
2018-11-10T22:42:41.192Z,7.30
2018-11-10T22:45:11.837Z,7.30
2018-11-10T22:47:41.751Z,7.30
2018-11-10T22:50:13.393Z,7.20
2018-11-10T22:52:45.296Z,7.20
2018-11-10T22:55:14.594Z,7.10
2018-11-10T22:57:43.372Z,7.10
2018-11-10T23:00:16.465Z,7.10
2018-11-10T23:02:47.501Z,7.10
2018-11-10T23:05:16.691Z,7.00
2018-11-10T23:07:45.257Z,7.00
2018-11-10T23:10:14.534Z,6.90
2018-11-10T23:12:44.068Z,6.90
2018-11-10T23:15:12.641Z,7.00
2018-11-10T23:17:41.558Z,7.00
2018-11-10T23:20:11.857Z,7.00
2018-11-10T23:22:41.189Z,7.00
2018-11-10T23:25:14.366Z,7.00
2018-11-10T23:27:42.967Z,7.10
2018-11-10T23:30:14.473Z,7.10
2018-11-10T23:32:43.054Z,7.10
2018-11-10T23:35:12.354Z,7.10
2018-11-10T23:37:41.423Z,7.00
2018-11-10T23:40:12.200Z,7.10
2018-11-10T23:42:41.353Z,7.10
2018-11-10T23:45:10.596Z,7.10
2018-11-10T23:47:39.553Z,7.10
2018-11-10T23:50:10.329Z,7.00
2018-11-10T23:52:39.474Z,7.00
2018-11-10T23:55:09.026Z,7.00
2018-11-10T23:57:37.648Z,7.00
